Terminal Aerodrome Forecast
Issued by NWS Wichita, KS

Home | Current Version | Previous Version | Graphics & Text | Print | Product List | Glossary On
Versions: 1 2 3 4 5 6 7 8 9 10 11 12 13 14 15 16 17
000
FTUS43 KICT 290534
TAFICT
TAF
KICT 290534Z 2906/3006 33015G22KT P6SM SCT250
     FM291100 35018G24KT P6SM SCT025
     FM291300 35018G24KT P6SM BKN025
     FM291500 35020G28KT P6SM BKN025
     FM292300 35014KT P6SM SCT030
     FM300100 35005KT P6SM SKC=

USA.gov is the U.S. government's official web portal to all federal, state and local government web resources and services.